createdAt,value
2023-02-16T00:02:03.787Z,37.10
2023-02-16T00:04:31.215Z,35.97
2023-02-16T00:06:58.210Z,36.95
2023-02-16T00:09:24.934Z,37.88
2023-02-16T00:12:10.458Z,39.47
2023-02-16T00:14:37.688Z,37.67
2023-02-16T00:17:04.448Z,36.25
2023-02-16T00:19:35.578Z,38.00
2023-02-16T00:22:02.351Z,36.17
2023-02-16T00:24:29.496Z,36.60
2023-02-16T00:26:56.267Z,36.03
2023-02-16T00:29:30.821Z,38.58
2023-02-16T00:31:58.187Z,35.90
2023-02-16T00:34:43.690Z,39.30
2023-02-16T00:37:12.043Z,34.75
2023-02-16T00:39:39.587Z,36.97
2023-02-16T00:42:11.384Z,35.60
2023-02-16T00:44:45.168Z,36.63
2023-02-16T00:47:39.807Z,38.03
2023-02-16T00:50:19.266Z,36.50
2023-02-16T00:52:46.700Z,37.45
2023-02-16T00:55:15.115Z,34.85
2023-02-16T00:57:52.130Z,35.22
2023-02-16T01:00:23.526Z,36.38
2023-02-16T01:02:50.942Z,34.95
2023-02-16T01:05:17.996Z,35.13
2023-02-16T01:08:03.017Z,34.90
2023-02-16T01:10:48.596Z,36.33
2023-02-16T01:13:15.592Z,37.20
2023-02-16T01:15:42.812Z,37.72
2023-02-16T01:18:11.109Z,36.03
2023-02-16T01:20:37.987Z,37.45
2023-02-16T01:23:04.667Z,36.33
2023-02-16T01:25:31.306Z,37.90
2023-02-16T01:27:57.944Z,36.83
2023-02-16T01:30:25.226Z,37.53
2023-02-16T01:32:52.189Z,35.95
2023-02-16T01:35:23.535Z,36.60
2023-02-16T01:37:50.264Z,35.72
2023-02-16T01:40:41.256Z,36.88
2023-02-16T01:43:23.040Z,35.10
2023-02-16T01:46:14.895Z,34.67
2023-02-16T01:48:41.605Z,36.00
2023-02-16T01:51:18.594Z,34.33
2023-02-16T01:54:12.730Z,35.28
2023-02-16T01:56:46.068Z,34.53
2023-02-16T01:59:30.250Z,34.35
2023-02-16T02:02:00.362Z,35.42
2023-02-16T02:05:12.108Z,34.30
2023-02-16T02:07:45.697Z,33.88
2023-02-16T02:10:25.186Z,34.72
2023-02-16T02:12:53.431Z,32.72
2023-02-16T02:15:22.794Z,35.22
2023-02-16T02:17:49.469Z,35.25
2023-02-16T02:20:45.931Z,33.85
2023-02-16T02:23:34.277Z,34.55
2023-02-16T02:26:22.404Z,35.05
2023-02-16T02:29:10.631Z,34.65
2023-02-16T02:31:43.349Z,34.25
2023-02-16T02:34:36.343Z,33.67
2023-02-16T02:37:10.954Z,34.53
2023-02-16T02:39:50.467Z,34.15
2023-02-16T02:42:32.560Z,33.33
2023-02-16T02:45:10.323Z,34.33
2023-02-16T02:47:44.315Z,33.33
2023-02-16T02:50:35.855Z,33.42
2023-02-16T02:53:05.518Z,32.80
2023-02-16T02:55:51.063Z,34.72
2023-02-16T02:58:36.921Z,33.33
2023-02-16T03:01:03.916Z,33.50
2023-02-16T03:03:39.078Z,34.20
2023-02-16T03:06:09.854Z,33.92
2023-02-16T03:08:38.447Z,34.88
2023-02-16T03:11:34.135Z,34.63
2023-02-16T03:14:09.104Z,33.92
2023-02-16T03:16:38.808Z,33.15
2023-02-16T03:19:24.754Z,33.35
2023-02-16T03:22:10.321Z,32.97
2023-02-16T03:24:55.630Z,32.13
2023-02-16T03:27:45.636Z,32.83
2023-02-16T03:30:14.012Z,30.42
2023-02-16T03:32:40.916Z,32.10
2023-02-16T03:35:08.555Z,33.90
2023-02-16T03:37:35.156Z,32.92
2023-02-16T03:40:20.693Z,32.97
2023-02-16T03:42:51.220Z,33.10
2023-02-16T03:45:18.858Z,33.92
2023-02-16T03:47:45.465Z,34.17
2023-02-16T03:50:12.110Z,33.25
2023-02-16T03:52:38.964Z,35.20
2023-02-16T03:55:06.107Z,33.63
2023-02-16T03:57:33.030Z,35.28
2023-02-16T03:59:59.921Z,32.90
2023-02-16T04:02:27.900Z,32.78
2023-02-16T04:04:54.572Z,34.13
2023-02-16T04:07:21.154Z,32.72
2023-02-16T04:09:47.780Z,32.40
2023-02-16T04:12:32.812Z,33.50
2023-02-16T04:14:59.425Z,32.00
2023-02-16T04:17:26.076Z,32.53
2023-02-16T04:19:52.837Z,33.85
2023-02-16T04:22:19.459Z,34.10
2023-02-16T04:24:46.171Z,34.95
2023-02-16T04:27:12.761Z,33.55
2023-02-16T04:29:39.396Z,34.55
2023-02-16T04:32:06.177Z,35.38
2023-02-16T04:34:33.113Z,36.30
2023-02-16T04:36:59.980Z,37.30
2023-02-16T04:39:27.920Z,34.50
2023-02-16T04:41:54.797Z,34.63
2023-02-16T04:44:21.413Z,34.85
2023-02-16T04:46:48.067Z,31.80
2023-02-16T04:49:14.745Z,36.22
2023-02-16T04:51:41.401Z,36.47
2023-02-16T04:54:08.194Z,34.45
2023-02-16T04:56:34.827Z,33.53
2023-02-16T04:59:01.457Z,38.42
2023-02-16T05:01:28.164Z,35.38
2023-02-16T05:03:54.952Z,35.85
2023-02-16T05:06:21.796Z,36.95
2023-02-16T05:08:48.450Z,37.72
2023-02-16T05:11:33.550Z,35.22
2023-02-16T05:14:18.717Z,36.33
2023-02-16T05:16:45.359Z,36.35
2023-02-16T05:19:12.483Z,35.40
2023-02-16T05:21:39.417Z,36.65
2023-02-16T05:24:10.155Z,34.90
2023-02-16T05:26:37.617Z,37.00
2023-02-16T05:29:04.351Z,35.97
2023-02-16T05:31:31.179Z,35.47
2023-02-16T05:33:57.915Z,35.38
2023-02-16T05:36:24.603Z,36.65
2023-02-16T05:38:51.225Z,37.08
2023-02-16T05:41:23.758Z,36.53
2023-02-16T05:44:03.732Z,36.42
2023-02-16T05:46:32.639Z,39.00
2023-02-16T05:48:59.794Z,35.35
2023-02-16T05:51:26.801Z,37.50
2023-02-16T05:53:53.406Z,36.58
2023-02-16T05:56:20.153Z,38.03
2023-02-16T05:58:47.164Z,37.13
2023-02-16T06:01:13.836Z,36.20
2023-02-16T06:03:40.819Z,35.65
2023-02-16T06:06:07.762Z,35.20
2023-02-16T06:08:34.646Z,35.30
2023-02-16T06:11:01.729Z,36.63
2023-02-16T06:13:28.630Z,38.13
2023-02-16T06:15:56.319Z,39.22
2023-02-16T06:18:23.733Z,36.83
2023-02-16T06:20:50.622Z,37.25
2023-02-16T06:23:17.640Z,36.05
2023-02-16T06:25:45.314Z,37.65
2023-02-16T06:28:11.952Z,33.60
2023-02-16T06:30:38.594Z,34.03
2023-02-16T06:33:05.204Z,33.85
2023-02-16T06:35:31.942Z,31.95
2023-02-16T06:37:59.429Z,32.90
2023-02-16T06:40:26.217Z,34.00
2023-02-16T06:42:53.087Z,33.25
2023-02-16T06:45:19.724Z,34.72
2023-02-16T06:47:46.310Z,34.33
2023-02-16T06:50:14.433Z,32.10
2023-02-16T06:52:41.145Z,34.40
2023-02-16T06:55:08.284Z,32.72
2023-02-16T06:57:38.137Z,34.97
2023-02-16T07:00:07.452Z,33.25
2023-02-16T07:02:34.302Z,33.55
2023-02-16T07:05:01.002Z,33.72
2023-02-16T07:07:27.656Z,33.05
2023-02-16T07:09:54.819Z,33.22
2023-02-16T07:12:21.828Z,34.25
2023-02-16T07:14:48.537Z,35.40
2023-02-16T07:17:15.394Z,31.65
2023-02-16T07:19:42.275Z,32.70
2023-02-16T07:22:08.875Z,33.17
2023-02-16T07:24:35.535Z,35.85
2023-02-16T07:27:02.371Z,32.75
2023-02-16T07:29:29.190Z,32.55
2023-02-16T07:31:56.569Z,33.53
2023-02-16T07:34:23.760Z,32.83
2023-02-16T07:36:50.403Z,33.42
2023-02-16T07:39:17.021Z,33.00
2023-02-16T07:41:43.685Z,29.35
2023-02-16T07:44:10.302Z,28.83
2023-02-16T07:46:37.002Z,29.08
2023-02-16T07:49:03.760Z,31.67
2023-02-16T07:51:30.901Z,30.40
2023-02-16T07:53:58.170Z,29.67
2023-02-16T07:56:29.101Z,30.17
2023-02-16T07:58:56.269Z,30.42
2023-02-16T08:01:22.989Z,29.65
2023-02-16T08:03:50.768Z,30.58
2023-02-16T08:06:17.904Z,30.80
2023-02-16T08:08:44.839Z,29.30
2023-02-16T08:11:19.669Z,30.02
2023-02-16T08:13:46.574Z,30.38
2023-02-16T08:16:18.121Z,31.52
2023-02-16T08:18:45.246Z,31.45
2023-02-16T08:21:14.483Z,32.60
2023-02-16T08:23:47.570Z,32.70
2023-02-16T08:26:17.683Z,31.87
2023-02-16T08:28:49.981Z,30.58
2023-02-16T08:31:18.939Z,29.27
2023-02-16T08:33:45.995Z,31.80
2023-02-16T08:36:35.017Z,30.33
2023-02-16T08:39:04.026Z,31.42
2023-02-16T08:41:35.073Z,30.00
2023-02-16T08:44:02.372Z,29.65
2023-02-16T08:46:29.542Z,29.25
2023-02-16T08:49:00.202Z,29.63
2023-02-16T08:51:28.311Z,32.78
2023-02-16T08:53:55.908Z,32.15
2023-02-16T08:56:23.697Z,33.50
2023-02-16T08:58:50.384Z,35.38
2023-02-16T09:01:17.033Z,35.78
2023-02-16T09:03:44.738Z,34.22
2023-02-16T09:06:12.266Z,32.75
2023-02-16T09:08:39.273Z,34.78
2023-02-16T09:11:07.194Z,36.17
2023-02-16T09:13:37.868Z,35.05
2023-02-16T09:16:05.686Z,34.95
2023-02-16T09:18:36.785Z,33.40
2023-02-16T09:21:10.848Z,34.65
2023-02-16T09:26:07.434Z,32.20
2023-02-16T09:28:34.895Z,33.95
2023-02-16T09:31:01.622Z,33.50
2023-02-16T09:33:28.352Z,35.33
2023-02-16T09:35:54.982Z,33.78
2023-02-16T09:38:21.682Z,33.75
2023-02-16T09:40:48.356Z,34.08
2023-02-16T09:43:35.567Z,31.60
2023-02-16T09:46:02.478Z,33.20
2023-02-16T09:48:35.997Z,33.05
2023-02-16T09:51:04.273Z,32.47
2023-02-16T09:53:41.678Z,33.40
2023-02-16T09:56:13.905Z,30.38
2023-02-16T09:59:04.988Z,31.27
2023-02-16T10:01:46.254Z,31.38
2023-02-16T10:04:39.230Z,31.42
2023-02-16T10:07:20.425Z,32.25
2023-02-16T10:09:49.007Z,31.63
2023-02-16T10:12:19.426Z,27.95
2023-02-16T10:14:48.546Z,31.13
2023-02-16T10:17:37.862Z,31.75
2023-02-16T10:20:18.084Z,30.15
2023-02-16T10:23:08.200Z,31.00
2023-02-16T10:25:54.737Z,28.88
2023-02-16T10:28:48.349Z,30.27
2023-02-16T10:31:39.041Z,28.60
2023-02-16T10:34:23.486Z,27.35
2023-02-16T10:39:44.348Z,24.10
2023-02-16T10:42:22.740Z,29.08
2023-02-16T10:44:54.035Z,31.40
2023-02-16T10:47:29.269Z,30.02
2023-02-16T10:49:56.061Z,28.88
2023-02-16T10:52:22.990Z,29.65
2023-02-16T10:54:49.645Z,32.70
2023-02-16T10:57:42.511Z,33.58
2023-02-16T11:00:11.848Z,32.80
2023-02-16T11:02:40.983Z,28.20
2023-02-16T11:05:26.393Z,28.90
2023-02-16T11:07:54.401Z,30.27
2023-02-16T11:10:22.801Z,33.05
2023-02-16T11:12:55.503Z,30.10
2023-02-16T11:15:23.505Z,31.58
2023-02-16T11:18:08.081Z,29.65
2023-02-16T11:20:45.040Z,32.30
2023-02-16T11:23:21.376Z,31.17
2023-02-16T11:26:12.292Z,30.98
2023-02-16T11:28:46.461Z,30.05
2023-02-16T11:33:57.069Z,28.27
2023-02-16T11:36:32.375Z,28.65
2023-02-16T11:39:20.261Z,30.10
2023-02-16T11:41:57.409Z,28.77
2023-02-16T11:44:36.188Z,28.73
2023-02-16T11:47:23.956Z,27.70
2023-02-16T11:50:04.529Z,28.40
2023-02-16T11:52:32.556Z,28.27
2023-02-16T11:55:00.669Z,26.52
2023-02-16T11:57:35.749Z,25.70
2023-02-16T12:00:09.414Z,26.73
2023-02-16T12:02:45.058Z,28.50
2023-02-16T12:05:35.565Z,26.98
2023-02-16T12:08:21.130Z,28.17
2023-02-16T12:10:48.006Z,26.38
2023-02-16T12:13:21.913Z,25.15
2023-02-16T12:16:07.530Z,27.10
2023-02-16T12:18:41.860Z,28.25
2023-02-16T12:21:38.177Z,25.98
2023-02-16T12:24:20.188Z,27.25
2023-02-16T12:26:54.503Z,27.55
2023-02-16T12:29:38.010Z,26.52
2023-02-16T12:32:10.370Z,26.88
2023-02-16T12:34:48.826Z,28.65
2023-02-16T12:37:24.174Z,26.80
2023-02-16T12:39:54.407Z,27.85
2023-02-16T12:42:48.319Z,26.02
2023-02-16T12:45:21.354Z,25.92
2023-02-16T12:48:11.044Z,25.15
2023-02-16T12:50:38.420Z,28.17
2023-02-16T12:53:14.470Z,26.70
2023-02-16T12:55:51.244Z,26.20
2023-02-16T12:58:21.819Z,26.50
2023-02-16T13:00:52.213Z,25.55
2023-02-16T13:03:46.358Z,26.80
2023-02-16T13:06:25.218Z,25.70
2023-02-16T13:09:01.574Z,26.02
2023-02-16T13:11:37.065Z,25.65
2023-02-16T13:14:06.380Z,24.90
2023-02-16T13:16:42.112Z,26.40
2023-02-16T13:19:14.281Z,24.65
2023-02-16T13:22:00.495Z,26.33
2023-02-16T13:24:42.458Z,25.38
2023-02-16T13:27:30.446Z,25.45
2023-02-16T13:30:35.352Z,24.40
2023-02-16T13:33:11.019Z,25.95
2023-02-16T13:36:00.415Z,27.27
2023-02-16T13:39:00.912Z,27.08
2023-02-16T13:41:51.409Z,28.05
2023-02-16T13:44:26.227Z,26.23
2023-02-16T13:46:53.856Z,25.60
2023-02-16T13:49:43.279Z,26.52
2023-02-16T13:52:10.858Z,27.00
2023-02-16T13:54:40.101Z,28.40
2023-02-16T13:57:11.720Z,29.25
2023-02-16T13:59:38.311Z,27.92
2023-02-16T14:02:11.034Z,26.60
2023-02-16T14:04:37.988Z,26.52
2023-02-16T14:07:07.549Z,27.65
2023-02-16T14:09:46.698Z,27.83
2023-02-16T14:12:36.064Z,28.48
2023-02-16T14:15:16.390Z,27.67
2023-02-16T14:17:44.127Z,28.35
2023-02-16T14:20:13.798Z,27.65
2023-02-16T14:22:43.443Z,29.02
2023-02-16T14:25:34.279Z,27.98
2023-02-16T14:28:30.086Z,28.38
2023-02-16T14:30:58.258Z,28.88
2023-02-16T14:33:39.569Z,28.00
2023-02-16T14:36:27.205Z,27.52
2023-02-16T14:38:58.380Z,28.70
2023-02-16T14:41:25.009Z,28.45
2023-02-16T14:44:03.938Z,30.10
2023-02-16T14:46:30.516Z,28.85
2023-02-16T14:49:21.789Z,29.00
2023-02-16T14:52:03.403Z,28.90
2023-02-16T14:55:03.661Z,29.75
2023-02-16T14:57:38.234Z,30.35
2023-02-16T15:00:29.650Z,30.92
2023-02-16T15:02:57.453Z,29.92
2023-02-16T15:05:29.870Z,29.25
2023-02-16T15:08:03.105Z,30.40
2023-02-16T15:10:29.936Z,29.73
2023-02-16T15:12:56.841Z,30.55
2023-02-16T15:15:50.081Z,30.17
2023-02-16T15:18:18.535Z,29.83
2023-02-16T15:20:47.075Z,32.05
2023-02-16T15:23:19.827Z,32.10
2023-02-16T15:25:59.761Z,32.53
2023-02-16T15:28:29.377Z,30.40
2023-02-16T15:30:58.387Z,32.53
2023-02-16T15:33:25.035Z,30.02
2023-02-16T15:36:01.468Z,31.55
2023-02-16T15:38:32.807Z,31.83
2023-02-16T15:41:07.464Z,31.33
2023-02-16T15:43:43.411Z,31.80
2023-02-16T15:46:23.587Z,32.33
2023-02-16T15:48:50.872Z,32.10
2023-02-16T15:51:34.388Z,33.63
2023-02-16T15:54:02.798Z,30.80
2023-02-16T15:56:39.231Z,33.10
2023-02-16T15:59:28.888Z,32.17
2023-02-16T16:01:57.584Z,31.45
2023-02-16T16:04:25.442Z,31.50
2023-02-16T16:06:52.935Z,32.60
2023-02-16T16:09:29.554Z,32.38
2023-02-16T16:11:58.033Z,32.97
2023-02-16T16:14:27.098Z,33.00
2023-02-16T16:16:54.116Z,32.92
2023-02-16T16:19:30.959Z,31.58
2023-02-16T16:21:57.976Z,34.00
2023-02-16T16:24:38.204Z,33.53
2023-02-16T16:27:12.314Z,35.05
2023-02-16T16:29:47.036Z,33.65
2023-02-16T16:32:21.681Z,35.47
2023-02-16T16:34:48.701Z,33.92
2023-02-16T16:37:26.391Z,34.38
2023-02-16T16:40:06.629Z,34.85
2023-02-16T16:42:34.223Z,34.53
2023-02-16T16:45:28.180Z,34.40
2023-02-16T16:48:02.337Z,34.73
2023-02-16T16:53:31.638Z,33.08
2023-02-16T16:56:10.592Z,33.17
2023-02-16T16:58:40.006Z,34.85
2023-02-16T17:01:12.522Z,33.50
2023-02-16T17:03:39.375Z,32.50
2023-02-16T17:06:06.870Z,33.83
2023-02-16T17:08:33.898Z,34.78
2023-02-16T17:11:01.250Z,35.65
2023-02-16T17:13:27.843Z,34.33
2023-02-16T17:15:58.833Z,34.22
2023-02-16T17:18:25.509Z,35.20
2023-02-16T17:20:52.979Z,35.22
2023-02-16T17:23:20.848Z,34.67
2023-02-16T17:25:47.536Z,36.03
2023-02-16T17:28:14.470Z,35.78
2023-02-16T17:30:41.242Z,35.75
2023-02-16T17:33:08.166Z,36.65
2023-02-16T17:35:35.138Z,35.05
2023-02-16T17:38:07.598Z,33.78
2023-02-16T17:40:34.310Z,35.90
2023-02-16T17:43:00.907Z,35.72
2023-02-16T17:45:27.525Z,36.10
2023-02-16T17:47:54.157Z,35.60
2023-02-16T17:50:21.080Z,34.17
2023-02-16T17:52:54.322Z,37.03
2023-02-16T17:55:21.171Z,34.45
2023-02-16T17:57:47.926Z,36.22
2023-02-16T18:00:17.941Z,37.55
2023-02-16T18:02:44.727Z,35.53
2023-02-16T18:05:11.702Z,36.75
2023-02-16T18:07:38.475Z,38.30
2023-02-16T18:10:05.533Z,37.55
2023-02-16T18:12:32.411Z,35.08
2023-02-16T18:14:59.281Z,37.67
2023-02-16T18:17:25.908Z,36.65
2023-02-16T18:19:55.552Z,36.50
2023-02-16T18:22:22.197Z,36.70
2023-02-16T18:24:53.111Z,37.22
2023-02-16T18:27:21.393Z,35.80
2023-02-16T18:29:48.049Z,36.05
2023-02-16T18:32:14.662Z,35.88
2023-02-16T18:34:41.308Z,36.50
2023-02-16T18:37:07.922Z,39.45
2023-02-16T18:39:34.621Z,37.47
2023-02-16T18:42:01.396Z,39.95
2023-02-16T18:44:28.041Z,39.65
2023-02-16T18:46:54.668Z,37.33
2023-02-16T18:49:21.662Z,37.03
2023-02-16T18:51:51.322Z,37.65
2023-02-16T18:54:19.472Z,38.47
2023-02-16T18:56:47.551Z,37.30
2023-02-16T18:59:14.248Z,36.13
2023-02-16T19:01:41.364Z,36.80
2023-02-16T19:04:08.157Z,37.20
2023-02-16T19:06:34.868Z,37.90
2023-02-16T19:09:01.703Z,38.55
2023-02-16T19:11:30.707Z,36.60
2023-02-16T19:13:57.613Z,36.92
2023-02-16T19:16:24.635Z,37.83
2023-02-16T19:18:53.329Z,37.20
2023-02-16T19:21:20.208Z,37.47
2023-02-16T19:23:47.480Z,39.42
2023-02-16T19:26:15.552Z,37.60
2023-02-16T19:28:42.326Z,37.30
2023-02-16T19:31:14.822Z,36.63
2023-02-16T19:33:44.671Z,36.03
2023-02-16T19:36:12.586Z,37.92
2023-02-16T19:38:39.344Z,37.17
2023-02-16T19:41:19.977Z,37.70
2023-02-16T19:43:46.868Z,37.63
2023-02-16T19:46:13.823Z,36.38
2023-02-16T19:48:40.646Z,36.85
2023-02-16T19:51:07.922Z,36.60
2023-02-16T19:53:35.139Z,36.10
2023-02-16T19:56:05.140Z,35.65
2023-02-16T19:58:32.088Z,37.05
2023-02-16T20:00:58.716Z,36.95
2023-02-16T20:03:25.398Z,36.38
2023-02-16T20:05:52.023Z,35.58
2023-02-16T20:08:18.874Z,37.25
2023-02-16T20:10:45.744Z,35.55
2023-02-16T20:13:12.619Z,35.95
2023-02-16T20:15:39.529Z,36.10
2023-02-16T20:18:07.906Z,34.63
2023-02-16T20:20:35.626Z,35.70
2023-02-16T20:23:02.262Z,34.80
2023-02-16T20:25:28.929Z,34.80
2023-02-16T20:27:56.457Z,36.20
2023-02-16T20:30:25.275Z,34.25
2023-02-16T20:32:52.014Z,34.38
2023-02-16T20:35:18.658Z,35.15
2023-02-16T20:37:45.302Z,34.92
2023-02-16T20:40:12.532Z,33.33
2023-02-16T20:42:39.159Z,34.17
2023-02-16T20:45:06.178Z,35.85
2023-02-16T20:47:40.659Z,35.10
2023-02-16T20:50:07.540Z,36.28
2023-02-16T20:52:34.676Z,35.85
2023-02-16T20:55:01.373Z,34.85
2023-02-16T20:57:28.000Z,33.97
2023-02-16T20:59:55.419Z,35.75
2023-02-16T21:02:22.073Z,34.20
2023-02-16T21:04:48.798Z,33.22
2023-02-16T21:07:15.424Z,35.33
2023-02-16T21:09:42.568Z,33.15
2023-02-16T21:12:09.480Z,32.20
2023-02-16T21:14:36.147Z,34.67
2023-02-16T21:17:02.792Z,31.83
2023-02-16T21:19:29.451Z,33.78
2023-02-16T21:21:56.471Z,32.03
2023-02-16T21:24:23.299Z,34.42
2023-02-16T21:26:49.952Z,33.75
2023-02-16T21:29:16.636Z,30.73
2023-02-16T21:31:43.502Z,31.85
2023-02-16T21:34:10.213Z,33.08
2023-02-16T21:36:38.168Z,32.42
2023-02-16T21:39:04.922Z,32.78
2023-02-16T21:41:31.613Z,31.98
2023-02-16T21:44:00.741Z,32.78
2023-02-16T21:46:51.448Z,33.65
2023-02-16T21:49:19.056Z,32.13
2023-02-16T21:51:46.641Z,32.05
2023-02-16T21:54:17.509Z,33.28
2023-02-16T21:56:45.873Z,32.20
2023-02-16T21:59:14.174Z,31.05
2023-02-16T22:01:45.598Z,31.75
2023-02-16T22:04:13.663Z,31.08
2023-02-16T22:06:42.246Z,31.45
2023-02-16T22:09:14.135Z,31.40
2023-02-16T22:11:40.913Z,33.10
2023-02-16T22:14:07.630Z,34.53
2023-02-16T22:16:34.869Z,33.33
2023-02-16T22:19:06.125Z,31.80
2023-02-16T22:21:35.666Z,31.90
2023-02-16T22:24:02.318Z,32.10
2023-02-16T22:26:31.249Z,31.08
2023-02-16T22:28:58.053Z,31.40
2023-02-16T22:31:27.017Z,30.77
2023-02-16T22:34:06.931Z,31.80
2023-02-16T22:36:33.644Z,29.77
2023-02-16T22:39:00.321Z,30.27
2023-02-16T22:41:27.013Z,29.80
2023-02-16T22:43:54.493Z,29.27
2023-02-16T22:46:21.287Z,30.42
2023-02-16T22:48:47.948Z,30.35
2023-02-16T22:51:15.707Z,28.77
2023-02-16T22:53:42.333Z,29.88
2023-02-16T22:56:10.392Z,30.10
2023-02-16T22:58:37.064Z,28.60
2023-02-16T23:01:03.950Z,29.00
2023-02-16T23:03:30.865Z,28.83
2023-02-16T23:05:57.482Z,28.25
2023-02-16T23:08:24.133Z,29.70
2023-02-16T23:11:02.483Z,28.23
2023-02-16T23:13:32.786Z,28.25
2023-02-16T23:16:07.617Z,27.00
2023-02-16T23:18:34.384Z,29.58
2023-02-16T23:21:08.229Z,27.90
2023-02-16T23:23:34.964Z,27.88
2023-02-16T23:26:01.712Z,28.30
2023-02-16T23:28:28.349Z,28.02
2023-02-16T23:30:56.031Z,28.40
2023-02-16T23:33:23.111Z,27.90
2023-02-16T23:35:49.740Z,25.83
2023-02-16T23:38:16.446Z,28.15
2023-02-16T23:40:43.308Z,27.75
2023-02-16T23:43:10.452Z,27.15
2023-02-16T23:45:37.490Z,27.17
2023-02-16T23:48:04.192Z,28.23
2023-02-16T23:50:30.827Z,28.35
2023-02-16T23:52:57.706Z,29.92
2023-02-16T23:55:24.322Z,27.55
2023-02-16T23:57:50.943Z,27.35
